Time;durP1;ratioP1;P1;durP2;ratioP2;P2;SDS_P1;SDS_P2;PMS_P1;PMS_P2;Temp;Humidity;BMP_temperature;BMP_pressure;BME280_temperature;BME280_humidity;BME280_pressure;Samples;Min_cycle;Max_cycle;Signal;HPM_P1;HPM_P2
2022/03/13 00:00:20;;;;;;;;;9.33;8.00;;;;;10.28;100.00;100620.41;4987977;28;45197;-77
2022/03/13 00:02:45;;;;;;;;;8.33;8.33;;;;;9.07;100.00;100429.47;4988537;28;45106;-79
2022/03/13 00:05:16;;;;;;;;;8.25;8.00;;;;;9.28;100.00;100446.19;4989217;28;44996;-77
2022/03/13 00:07:46;;;;;;;;;11.25;10.75;;;;;10.32;100.00;100624.66;4989297;28;45095;-78
2022/03/13 00:10:16;;;;;;;;;11.50;9.25;;;;;9.43;100.00;100482.25;4989351;28;45214;-85
2022/03/13 00:12:41;;;;;;;;;11.00;11.00;;;;;10.35;100.00;100639.91;4989077;28;45486;-79
2022/03/13 00:15:09;;;;;;;;;10.33;10.00;;;;;10.37;100.00;100619.78;4989758;28;45239;-78
2022/03/13 00:17:34;;;;;;;;;10.67;10.00;;;;;10.38;100.00;100612.50;4969273;28;45979;-83
2022/03/13 00:20:03;;;;;;;;;7.00;7.00;;;;;10.41;100.00;100619.59;4987985;28;45218;-77
2022/03/13 00:22:31;;;;;;;;;8.67;7.00;;;;;10.41;100.00;100615.03;4968283;28;45430;-83
2022/03/13 00:24:59;;;;;;;;;11.33;9.33;;;;;10.24;100.00;100588.13;4989098;28;45099;-80
2022/03/13 00:27:26;;;;;;;;;8.67;7.33;;;;;10.44;100.00;100617.53;4988980;28;45386;-77
2022/03/13 00:29:51;;;;;;;;;11.00;9.00;;;;;10.45;100.00;100608.41;4970927;28;46917;-76
2022/03/13 00:32:17;;;;;;;;;9.33;8.67;;;;;10.47;100.00;100622.75;4988967;28;45213;-75
2022/03/13 00:34:43;;;;;;;;;7.67;7.00;;;;;9.48;100.00;100448.44;4989132;28;45353;-75
2022/03/13 00:37:08;;;;;;;;;9.00;6.33;;;;;9.76;100.00;100498.97;4988921;28;45399;-76
2022/03/13 00:39:34;;;;;;;;;6.00;6.00;;;;;10.44;100.00;100612.09;4988297;28;45263;-79
2022/03/13 00:42:00;;;;;;;;;7.67;7.33;;;;;10.45;100.00;100618.41;4988523;28;45201;-77
2022/03/13 00:44:25;;;;;;;;;6.67;6.00;;;;;9.27;100.00;100406.44;4987252;28;45390;-76
2022/03/13 00:46:51;;;;;;;;;7.00;7.00;;;;;9.41;100.00;100430.78;4990197;28;45335;-76
2022/03/13 00:49:16;;;;;;;;;6.00;6.00;;;;;10.48;100.00;100602.75;4990243;28;45596;-79
2022/03/13 00:51:42;;;;;;;;;6.25;6.25;;;;;8.55;100.00;100276.56;4989547;28;45179;-76
2022/03/13 00:54:07;;;;;;;;;10.00;9.00;;;;;8.76;100.00;100314.91;4990579;28;45199;-76
2022/03/13 00:56:32;;;;;;;;;6.50;6.50;;;;;10.54;100.00;100606.88;4990322;28;45172;-78
2022/03/13 00:58:58;;;;;;;;;6.00;6.00;;;;;10.54;100.00;100599.63;4988657;28;45323;-76
2022/03/13 01:01:24;;;;;;;;;7.67;7.67;;;;;8.66;100.00;100281.28;4988429;28;45197;-76
2022/03/13 01:03:53;;;;;;;;;3.67;2.67;;;;;10.58;100.00;100600.25;4988599;28;45233;-76
2022/03/13 01:06:23;;;;;;;;;5.00;4.00;;;;;10.15;100.00;100529.84;4988381;28;45288;-78
2022/03/13 01:08:51;;;;;;;;;7.00;6.00;;;;;10.01;100.00;100503.63;4988361;28;45300;-76
2022/03/13 01:11:20;;;;;;;;;7.00;5.33;;;;;10.62;100.00;100621.69;4981935;28;45223;-77
2022/03/13 01:13:46;;;;;;;;;5.33;5.33;;;;;10.43;100.00;100561.41;4988460;28;45043;-80
2022/03/13 01:16:17;;;;;;;;;6.33;6.33;;;;;10.65;100.00;100597.03;4988062;28;45312;-80
2022/03/13 01:18:48;;;;;;;;;6.00;4.00;;;;;9.44;100.00;100387.19;4987789;28;45764;-79
2022/03/13 01:21:14;;;;;;;;;4.33;4.00;;;;;9.80;100.00;100435.38;4988278;28;45295;-79
2022/03/13 01:23:40;;;;;;;;;6.67;5.67;;;;;9.13;100.00;100314.31;4988243;28;45194;-81
2022/03/13 01:26:23;;;;;;;;;5.00;5.00;;;;;10.72;100.00;100578.41;4987255;28;45174;-77
2022/03/13 01:28:53;;;;;;;;;4.33;4.00;;;;;10.73;100.00;100573.84;4987779;28;45395;-77
2022/03/13 01:31:22;;;;;;;;;3.67;3.67;;;;;9.92;100.00;100433.63;4988151;28;45044;-80
2022/03/13 01:33:48;;;;;;;;;7.33;6.00;;;;;9.01;100.00;100267.19;4988016;28;45243;-77
2022/03/13 01:36:13;;;;;;;;;5.67;4.33;;;;;10.44;100.00;100519.69;4990611;28;45194;-77
2022/03/13 01:38:39;;;;;;;;;5.00;5.00;;;;;9.68;100.00;100391.88;4990885;28;45590;-77
2022/03/13 01:41:05;;;;;;;;;4.00;4.00;;;;;8.98;100.00;100252.00;4991715;28;45229;-78
2022/03/13 01:43:31;;;;;;;;;4.00;4.00;;;;;10.81;100.00;100566.03;4991853;28;45263;-78
2022/03/13 01:46:01;;;;;;;;;7.00;4.00;;;;;10.55;100.00;100508.06;4980602;28;45089;-78
2022/03/13 01:48:27;;;;;;;;;6.00;6.00;;;;;10.54;100.00;100520.78;4989249;28;47589;-77
2022/03/13 01:50:52;;;;;;;;;5.00;5.00;;;;;10.83;100.00;100554.03;4991208;28;45304;-79
2022/03/13 01:53:21;;;;;;;;;5.00;5.00;;;;;10.76;100.00;100536.44;4991755;28;45518;-78
2022/03/13 01:55:55;;;;;;;;;3.67;3.67;;;;;10.06;100.00;100419.09;4991354;28;45232;-81
2022/03/13 01:58:21;;;;;;;;;7.00;3.67;;;;;9.09;100.00;100254.84;4991157;28;47012;-79
2022/03/13 02:00:47;;;;;;;;;7.33;7.33;;;;;10.85;100.00;100556.69;4990970;28;45233;-80
2022/03/13 02:03:13;;;;;;;;;4.33;3.33;;;;;10.85;100.00;100548.53;4991202;28;45120;-79
2022/03/13 02:05:39;;;;;;;;;5.00;4.33;;;;;10.85;100.00;100535.78;4972636;28;45219;-82
2022/03/13 02:08:12;;;;;;;;;5.00;5.00;;;;;10.09;100.00;100429.75;4991125;28;45296;-78
2022/03/13 02:10:37;;;;;;;;;5.00;5.00;;;;;9.65;100.00;100335.13;4991288;28;45386;-78
2022/03/13 02:13:02;;;;;;;;;7.00;6.00;;;;;10.28;100.00;100442.94;4991829;28;45104;-78
2022/03/13 02:15:30;;;;;;;;;6.00;6.00;;;;;10.87;100.00;100531.09;4991668;28;44992;-80
2022/03/13 02:17:56;;;;;;;;;5.33;5.33;;;;;10.76;100.00;100501.09;4991136;28;45584;-83
2022/03/13 02:20:26;;;;;;;;;4.00;4.00;;;;;9.38;100.00;100279.09;4991021;28;45118;-80
2022/03/13 02:22:53;;;;;;;;;7.67;7.67;;;;;9.43;100.00;100286.88;4992098;28;45172;-81
2022/03/13 02:25:21;;;;;;;;;5.67;5.00;;;;;10.83;100.00;100506.94;4991251;28;45178;-81
2022/03/13 02:27:47;;;;;;;;;9.67;6.33;;;;;9.69;100.00;100333.94;4988945;28;45343;-77
2022/03/13 02:30:13;;;;;;;;;5.33;5.33;;;;;10.30;100.00;100430.13;4989905;28;45116;-78
2022/03/13 02:32:38;;;;;;;;;10.00;6.00;;;;;10.77;100.00;100502.81;4973243;28;45110;-78
2022/03/13 02:35:04;;;;;;;;;6.00;6.00;;;;;10.75;100.00;100501.22;4990392;28;45378;-81
2022/03/13 02:37:39;;;;;;;;;6.33;6.00;;;;;9.65;100.00;100324.25;4990768;28;45674;-79
2022/03/13 02:40:06;;;;;;;;;9.33;7.00;;;;;10.71;100.00;100495.13;4990993;28;45083;-80
2022/03/13 02:42:31;;;;;;;;;7.75;7.75;;;;;9.93;100.00;100362.03;4991101;28;44971;-77
2022/03/13 02:44:57;;;;;;;;;7.33;5.00;;;;;10.68;100.00;100489.03;4972857;28;45242;-82
2022/03/13 02:47:22;;;;;;;;;8.00;6.67;;;;;9.59;100.00;100312.00;4989417;28;45640;-78
2022/03/13 02:49:48;;;;;;;;;8.67;6.33;;;;;10.63;100.00;100492.06;4990392;28;45283;-80
2022/03/13 02:52:13;;;;;;;;;10.67;7.00;;;;;10.60;100.00;100486.88;4992158;28;45104;-79
2022/03/13 02:54:39;;;;;;;;;10.00;8.00;;;;;10.57;100.00;100484.34;4992216;28;45133;-78
2022/03/13 02:57:04;;;;;;;;;7.67;6.00;;;;;9.62;100.00;100331.63;4991474;28;45386;-78
2022/03/13 02:59:29;;;;;;;;;9.33;8.33;;;;;10.06;100.00;100400.97;4992330;28;45103;-78
2022/03/13 03:01:55;;;;;;;;;10.67;8.33;;;;;10.42;100.00;100466.41;4988928;28;45127;-78
2022/03/13 03:04:24;;;;;;;;;10.00;7.00;;;;;10.48;100.00;100485.00;4973586;28;45337;-78
2022/03/13 03:07:04;;;;;;;;;11.33;7.33;;;;;9.55;100.00;100324.91;4990377;28;45418;-82
2022/03/13 03:09:31;;;;;;;;;9.00;7.67;;;;;9.60;100.00;100330.00;4976467;28;45204;-79
2022/03/13 03:12:01;;;;;;;;;10.00;9.67;;;;;9.65;100.00;100349.56;4990345;28;45160;-77
2022/03/13 03:14:31;;;;;;;;;6.00;6.00;;;;;9.52;100.00;100333.25;4990329;28;45111;-79
2022/03/13 03:16:57;;;;;;;;;6.67;6.00;;;;;10.06;100.00;100438.13;4972306;28;46087;-78
2022/03/13 03:19:24;;;;;;;;;7.33;7.33;;;;;10.37;100.00;100494.78;4990383;28;45287;-75
2022/03/13 03:21:52;;;;;;;;;10.33;5.67;;;;;9.02;100.00;100271.63;4990566;28;45339;-78
2022/03/13 03:24:20;;;;;;;;;6.67;6.67;;;;;10.09;100.00;100433.34;4990587;28;45518;-78
2022/03/13 03:26:46;;;;;;;;;9.00;7.33;;;;;10.14;100.00;100442.03;4989207;28;46219;-78
2022/03/13 03:29:12;;;;;;;;;14.00;11.00;;;;;10.01;100.00;100418.56;4971746;28;45180;-78
2022/03/13 03:31:43;;;;;;;;;8.75;8.75;;;;;9.54;100.00;100336.75;4971854;28;45346;-77
2022/03/13 03:34:17;;;;;;;;;7.67;7.67;;;;;10.15;100.00;100440.19;4989806;28;45276;-77
2022/03/13 03:36:49;;;;;;;;;6.00;6.00;;;;;9.41;100.00;100326.84;4989668;28;46541;-76
2022/03/13 03:39:16;;;;;;;;;5.00;5.00;;;;;8.60;100.00;100200.41;4989747;28;45246;-78
2022/03/13 03:41:44;;;;;;;;;6.67;6.67;;;;;10.28;100.00;100468.25;4989678;28;45264;-84
2022/03/13 03:44:11;;;;;;;;;7.00;7.00;;;;;9.92;100.00;100413.75;4972107;28;45295;-78
2022/03/13 03:46:37;;;;;;;;;8.00;7.00;;;;;10.11;100.00;100447.69;4989120;28;45177;-79
2022/03/13 03:49:03;;;;;;;;;11.00;7.00;;;;;10.12;100.00;100448.53;4984891;28;45133;-78
2022/03/13 03:51:29;;;;;;;;;9.50;6.00;;;;;9.90;100.00;100416.59;4987787;28;45259;-78
2022/03/13 03:53:54;;;;;;;;;10.00;10.00;;;;;10.19;100.00;100458.03;4989686;28;45427;-76
2022/03/13 03:56:19;;;;;;;;;7.33;7.33;;;;;10.20;100.00;100465.19;4989358;28;45454;-77
2022/03/13 03:58:45;;;;;;;;;6.33;6.33;;;;;9.33;100.00;100324.66;4988599;28;45242;-77
2022/03/13 04:01:10;;;;;;;;;10.33;9.33;;;;;10.18;100.00;100464.41;4990243;28;45253;-82
2022/03/13 04:03:35;;;;;;;;;10.67;7.00;;;;;9.01;100.00;100272.59;4988779;28;45284;-78
2022/03/13 04:06:01;;;;;;;;;9.67;7.67;;;;;9.90;100.00;100427.47;4971685;28;47379;-77
2022/03/13 04:08:29;;;;;;;;;13.00;11.00;;;;;9.90;100.00;100438.31;4971493;28;45116;-78
2022/03/13 04:10:55;;;;;;;;;10.67;9.33;;;;;9.42;100.00;100334.84;4978822;28;45158;-77
2022/03/13 04:13:20;;;;;;;;;7.00;6.67;;;;;10.11;100.00;100457.69;4989292;28;45579;-77
2022/03/13 04:15:45;;;;;;;;;7.67;6.00;;;;;9.85;100.00;100416.03;4989422;28;45119;-77
2022/03/13 04:18:11;;;;;;;;;6.50;6.50;;;;;9.78;100.00;100412.91;4989028;28;45506;-78
2022/03/13 04:20:36;;;;;;;;;9.00;6.67;;;;;9.57;100.00;100385.34;4989196;28;45406;-79
2022/03/13 04:23:02;;;;;;;;;7.50;5.75;;;;;9.71;100.00;100402.56;4989628;28;45109;-80
2022/03/13 04:25:28;;;;;;;;;8.33;6.33;;;;;8.72;100.00;100242.94;4989313;28;45698;-77
2022/03/13 04:27:55;;;;;;;;;8.75;7.00;;;;;8.72;100.00;100252.91;4989607;28;45497;-79
2022/03/13 04:30:20;;;;;;;;;9.50;6.00;;;;;9.77;100.00;100437.41;4987928;28;45527;-78
2022/03/13 04:32:47;;;;;;;;;9.33;9.33;;;;;8.65;100.00;100238.88;4989049;28;45398;-77
2022/03/13 04:35:12;;;;;;;;;8.00;7.25;;;;;9.35;100.00;100369.69;4989011;28;45673;-81
2022/03/13 04:37:37;;;;;;;;;7.25;5.00;;;;;10.04;100.00;100481.69;4988770;28;45515;-77
2022/03/13 04:40:03;;;;;;;;;7.33;5.00;;;;;9.92;100.00;100451.78;4988914;28;45111;-78
2022/03/13 04:42:29;;;;;;;;;9.00;9.00;;;;;10.00;100.00;100463.84;4989277;28;45231;-79
2022/03/13 04:44:54;;;;;;;;;5.00;5.00;;;;;9.17;100.00;100337.50;4988837;28;45105;-79
2022/03/13 04:47:20;;;;;;;;;6.67;5.33;;;;;8.83;100.00;100277.44;4988563;28;45153;-78
2022/03/13 04:49:45;;;;;;;;;6.75;5.25;;;;;10.09;100.00;100481.38;4988879;28;45503;-80
2022/03/13 04:52:11;;;;;;;;;8.00;6.33;;;;;9.66;100.00;100415.56;4985393;28;45214;-78
2022/03/13 04:54:36;;;;;;;;;7.67;6.67;;;;;9.35;100.00;100360.69;4989101;28;45372;-78
2022/03/13 04:57:03;;;;;;;;;4.00;4.00;;;;;10.11;100.00;100471.25;4989873;28;45320;-77
2022/03/13 04:59:28;;;;;;;;;7.00;5.67;;;;;9.96;100.00;100442.44;4989760;28;45435;-77
2022/03/13 05:01:53;;;;;;;;;6.00;6.00;;;;;10.13;100.00;100472.00;4988098;28;45201;-79
2022/03/13 05:04:19;;;;;;;;;3.00;3.00;;;;;9.68;100.00;100389.19;4986539;28;46123;-79
2022/03/13 05:06:45;;;;;;;;;6.33;5.00;;;;;9.64;100.00;100376.81;4987470;28;45171;-77
2022/03/13 05:09:11;;;;;;;;;5.33;4.33;;;;;10.14;100.00;100463.78;4988650;28;45371;-78
2022/03/13 05:11:38;;;;;;;;;4.67;4.00;;;;;8.62;100.00;100203.88;4984503;28;45606;-78
2022/03/13 05:14:04;;;;;;;;;4.33;4.33;;;;;9.16;100.00;100292.38;4984461;28;46047;-78
2022/03/13 05:16:30;;;;;;;;;4.00;4.00;;;;;10.17;100.00;100450.94;4987519;28;45491;-79
2022/03/13 05:18:55;;;;;;;;;6.00;5.00;;;;;10.18;100.00;100452.66;4988016;28;45236;-79
2022/03/13 05:21:20;;;;;;;;;5.33;3.67;;;;;8.99;100.00;100261.88;4987234;28;45345;-79
2022/03/13 05:23:46;;;;;;;;;4.00;4.00;;;;;10.16;100.00;100457.34;4987011;28;45806;-79
2022/03/13 05:26:12;;;;;;;;;3.67;3.67;;;;;9.25;100.00;100318.88;4987147;28;45217;-78
2022/03/13 05:28:37;;;;;;;;;7.67;6.00;;;;;8.74;100.00;100224.72;4988081;28;45063;-78
2022/03/13 05:31:03;;;;;;;;;4.67;4.67;;;;;9.78;100.00;100393.88;4987619;28;45659;-78
2022/03/13 05:33:30;;;;;;;;;6.00;6.00;;;;;9.14;100.00;100299.78;4976995;28;45253;-77
2022/03/13 05:35:56;;;;;;;;;4.67;3.33;;;;;10.06;100.00;100443.53;4987415;28;45250;-79
2022/03/13 05:38:21;;;;;;;;;5.00;5.00;;;;;10.15;100.00;100461.94;4987189;28;45443;-78
2022/03/13 05:40:46;;;;;;;;;4.00;4.00;;;;;10.16;100.00;100469.09;4986533;28;45155;-78
2022/03/13 05:43:12;;;;;;;;;4.00;4.00;;;;;9.91;100.00;100440.06;4986887;28;45203;-78
2022/03/13 05:45:39;;;;;;;;;4.33;4.33;;;;;9.92;100.00;100430.91;4986841;28;44945;-78
2022/03/13 05:48:10;;;;;;;;;4.00;4.00;;;;;10.17;100.00;100472.69;4987244;28;45213;-78
2022/03/13 05:50:36;;;;;;;;;3.00;3.00;;;;;8.90;100.00;100269.75;4987676;28;45191;-77
2022/03/13 05:53:02;;;;;;;;;5.00;2.00;;;;;9.08;100.00;100310.06;4987185;28;45432;-78
2022/03/13 05:55:28;;;;;;;;;4.00;4.00;;;;;9.76;100.00;100406.69;4988230;28;45332;-78
2022/03/13 05:57:55;;;;;;;;;4.67;4.00;;;;;9.91;100.00;100436.47;4987108;28;45310;-78
2022/03/13 06:00:22;;;;;;;;;4.00;3.00;;;;;10.13;100.00;100483.75;4987163;28;45283;-78
2022/03/13 06:02:48;;;;;;;;;3.25;3.25;;;;;9.20;100.00;100319.19;4987533;28;46031;-77
2022/03/13 06:05:16;;;;;;;;;2.67;2.67;;;;;10.12;100.00;100473.00;4987025;28;45402;-79
2022/03/13 06:07:41;;;;;;;;;3.00;3.00;;;;;10.13;100.00;100491.03;4986323;28;45386;-77
2022/03/13 06:10:08;;;;;;;;;4.67;3.00;;;;;9.50;100.00;100385.91;4969765;28;45640;-81
2022/03/13 06:12:34;;;;;;;;;3.33;3.33;;;;;9.85;100.00;100437.75;4986383;28;45378;-77
2022/03/13 06:15:00;;;;;;;;;4.67;4.67;;;;;9.69;100.00;100399.94;4964779;28;45051;-78
2022/03/13 06:17:26;;;;;;;;;6.67;4.67;;;;;9.28;100.00;100335.81;4985238;28;45458;-77
2022/03/13 06:19:54;;;;;;;;;2.67;2.67;;;;;10.12;100.00;100483.84;4984435;28;45189;-82
2022/03/13 06:22:19;;;;;;;;;3.00;3.00;;;;;8.63;100.00;100243.56;4989522;28;45893;-83
2022/03/13 06:24:45;;;;;;;;;3.00;3.00;;;;;9.27;100.00;100361.19;4990135;28;45184;-79
2022/03/13 06:27:11;;;;;;;;;4.00;2.33;;;;;9.00;100.00;100312.41;4990604;28;45212;-79
2022/03/13 06:29:38;;;;;;;;;3.67;3.33;;;;;8.79;100.00;100281.34;4990823;28;45105;-78
2022/03/13 06:32:04;;;;;;;;;2.00;2.00;;;;;9.13;100.00;100336.88;4972887;28;46477;-80
2022/03/13 06:34:29;;;;;;;;;2.33;2.33;;;;;9.86;100.00;100448.50;4984274;28;45218;-78
2022/03/13 06:36:54;;;;;;;;;3.00;3.00;;;;;10.17;100.00;100502.56;4988374;28;45337;-80
2022/03/13 06:39:20;;;;;;;;;5.67;4.00;;;;;9.19;100.00;100349.16;4991256;28;45098;-77
2022/03/13 06:41:45;;;;;;;;;2.00;2.00;;;;;9.14;100.00;100338.59;4973255;28;47633;-80
2022/03/13 06:44:10;;;;;;;;;3.00;3.00;;;;;8.69;100.00;100266.66;4989287;28;45109;-78
2022/03/13 06:46:36;;;;;;;;;1.00;1.00;;;;;9.90;100.00;100453.75;4989661;28;44991;-79
2022/03/13 06:49:05;;;;;;;;;4.00;4.00;;;;;9.57;100.00;100395.34;4989337;28;45378;-78
2022/03/13 06:51:31;;;;;;;;;8.33;5.00;;;;;9.22;100.00;100338.06;4989503;28;45724;-82
2022/03/13 06:53:57;;;;;;;;;3.33;3.00;;;;;10.19;100.00;100506.91;4990829;28;45012;-85
2022/03/13 06:56:22;;;;;;;;;4.00;3.00;;;;;9.86;100.00;100459.38;4978978;28;45238;-81
2022/03/13 06:58:48;;;;;;;;;3.00;3.00;;;;;10.21;100.00;100499.53;4997609;28;45078;-78
2022/03/13 07:01:13;;;;;;;;;6.00;3.00;;;;;10.07;100.00;100469.72;4985363;28;45423;-80
2022/03/13 07:03:39;;;;;;;;;2.00;2.00;;;;;8.58;100.00;100226.75;4995063;28;45075;-82
2022/03/13 07:06:05;;;;;;;;;4.33;2.67;;;;;9.68;100.00;100419.03;4989589;28;45637;-78
2022/03/13 07:08:32;;;;;;;;;2.33;2.33;;;;;9.67;100.00;100401.88;4988935;28;45130;-78
2022/03/13 07:10:59;;;;;;;;;2.33;2.33;;;;;10.11;100.00;100473.97;4989363;28;45536;-79
2022/03/13 07:13:26;;;;;;;;;2.00;2.00;;;;;9.55;100.00;100387.31;4988767;28;45674;-77
2022/03/13 07:15:51;;;;;;;;;3.00;3.00;;;;;9.91;100.00;100440.06;4972548;28;45504;-78
2022/03/13 07:18:17;;;;;;;;;3.00;3.00;;;;;9.13;100.00;100306.19;4988901;28;45228;-78
2022/03/13 07:20:42;;;;;;;;;2.00;2.00;;;;;9.57;100.00;100384.50;4989315;28;45609;-78
2022/03/13 07:23:08;;;;;;;;;2.00;2.00;;;;;9.61;100.00;100373.31;4989082;28;45639;-79
2022/03/13 07:25:33;;;;;;;;;5.00;3.67;;;;;9.40;100.00;100344.09;4989032;28;45397;-78
2022/03/13 07:27:59;;;;;;;;;2.00;2.00;;;;;10.41;100.00;100495.44;4989415;28;45058;-78
2022/03/13 07:30:24;;;;;;;;;3.67;3.00;;;;;9.57;100.00;100336.50;4988493;28;45952;-78
2022/03/13 07:32:49;;;;;;;;;2.67;2.67;;;;;10.46;100.00;100500.56;4989223;28;45012;-78
2022/03/13 07:35:15;;;;;;;;;3.00;2.00;;;;;10.47;100.00;100486.84;4989383;28;45141;-79
2022/03/13 07:37:40;;;;;;;;;4.00;2.00;;;;;9.95;100.00;100406.28;4970083;28;45111;-79
2022/03/13 07:40:06;;;;;;;;;4.00;3.00;;;;;10.45;100.00;100485.22;4989267;28;45631;-78
2022/03/13 07:42:31;;;;;;;;;2.67;2.67;;;;;10.14;100.00;100431.19;4988956;28;45138;-79
2022/03/13 07:44:57;;;;;;;;;3.00;3.00;;;;;9.40;100.00;100308.81;4989256;28;45832;-75
2022/03/13 07:47:22;;;;;;;;;4.00;4.00;;;;;9.92;100.00;100413.75;4981206;28;45227;-78
2022/03/13 07:49:48;;;;;;;;;4.00;3.00;;;;;8.69;100.00;100188.06;4988859;28;45250;-79
2022/03/13 07:52:13;;;;;;;;;3.00;2.00;;;;;10.48;100.00;100491.31;4989597;28;45523;-78
2022/03/13 07:54:38;;;;;;;;;4.00;3.00;;;;;9.75;100.00;100385.94;4989561;28;45000;-79
2022/03/13 07:57:04;;;;;;;;;2.00;2.00;;;;;10.55;100.00;100502.63;4984557;28;45621;-79
2022/03/13 07:59:30;;;;;;;;;4.00;1.67;;;;;10.53;100.00;100501.84;4970766;28;47387;-79
2022/03/13 08:01:58;;;;;;;;;3.33;2.00;;;;;10.54;100.00;100514.47;4987663;28;45191;-78
2022/03/13 08:04:24;;;;;;;;;3.00;3.00;;;;;9.64;100.00;100358.69;4988912;28;45315;-79
2022/03/13 08:06:50;;;;;;;;;5.00;2.00;;;;;9.53;100.00;100347.69;4986379;28;45139;-78
2022/03/13 08:09:15;;;;;;;;;3.67;2.00;;;;;10.55;100.00;100499.91;4988419;28;45323;-79
2022/03/13 08:11:41;;;;;;;;;1.00;1.00;;;;;10.55;100.00;100506.22;4988523;28;45022;-78
2022/03/13 08:14:12;;;;;;;;;3.00;3.00;;;;;9.28;100.00;100284.28;4989225;28;45224;-84
2022/03/13 08:16:38;;;;;;;;;2.00;2.00;;;;;10.01;100.00;100394.97;4988558;28;45208;-84
2022/03/13 08:19:05;;;;;;;;;3.00;3.00;;;;;10.20;100.00;100435.31;4988207;28;45510;-77
2022/03/13 08:21:30;;;;;;;;;2.67;2.67;;;;;10.58;100.00;100492.38;4987320;28;45301;-78
2022/03/13 08:23:57;;;;;;;;;4.00;4.00;;;;;10.37;100.00;100459.44;4989209;28;45082;-78
2022/03/13 08:26:23;;;;;;;;;3.00;2.00;;;;;10.33;100.00;100435.31;4966726;28;45343;-78
2022/03/13 08:28:49;;;;;;;;;2.00;2.00;;;;;9.00;100.00;100201.25;4986298;28;46013;-77
2022/03/13 08:31:14;;;;;;;;;2.00;2.00;;;;;10.23;100.00;100404.31;4987059;28;45396;-76
2022/03/13 08:33:43;;;;;;;;;3.00;2.00;;;;;9.62;100.00;100300.91;4988796;28;45224;-76
2022/03/13 08:36:08;;;;;;;;;6.00;3.00;;;;;9.00;100.00;100194.97;4988072;28;45244;-75
2022/03/13 08:38:34;;;;;;;;;2.00;2.00;;;;;10.67;100.00;100452.81;4988864;28;45519;-75
2022/03/13 08:40:59;;;;;;;;;4.67;4.00;;;;;10.77;100.00;100472.91;4988619;28;45406;-77
2022/03/13 08:43:26;;;;;;;;;4.67;4.67;;;;;10.79;100.00;100476.38;4988086;28;45166;-76
2022/03/13 08:45:51;;;;;;;;;2.00;2.00;;;;;10.22;100.00;100383.56;4988254;28;45316;-75
2022/03/13 08:48:17;;;;;;;;;2.33;2.33;;;;;10.61;100.00;100424.22;4970648;28;46671;-76
2022/03/13 08:50:42;;;;;;;;;2.00;2.00;;;;;10.86;100.00;100468.66;4988618;28;45382;-77
2022/03/13 08:53:08;;;;;;;;;2.67;2.67;;;;;10.91;100.00;100477.38;4988670;28;45261;-76
2022/03/13 08:55:34;;;;;;;;;4.00;4.00;;;;;9.94;100.00;100331.22;4988593;28;45245;-76
2022/03/13 08:57:59;;;;;;;;;3.00;3.00;;;;;10.05;100.00;100347.63;4988480;28;46056;-77
2022/03/13 09:00:26;;;;;;;;;2.00;1.67;;;;;10.70;100.00;100435.41;4988145;28;45245;-80
2022/03/13 09:02:53;;;;;;;;;3.00;2.33;;;;;11.02;100.00;100485.59;4988777;28;45299;-76
2022/03/13 09:05:18;;;;;;;;;2.00;2.00;;;;;10.22;100.00;100331.94;4988461;28;45460;-78
2022/03/13 09:07:44;;;;;;;;;4.67;2.67;;;;;10.60;100.00;100391.72;4969067;28;47040;-77
2022/03/13 09:10:11;;;;;;;;;3.00;2.00;;;;;11.18;100.00;100485.34;4968993;28;45316;-76
2022/03/13 09:12:37;;;;;;;;;2.00;2.00;;;;;11.24;100.00;100486.72;4988731;28;45217;-81
2022/03/13 09:15:04;;;;;;;;;4.33;2.33;;;;;10.88;100.00;100420.47;4988953;28;45329;-77
2022/03/13 09:17:29;;;;;;;;;2.00;2.00;;;;;10.87;100.00;100410.56;4987887;28;45047;-76
2022/03/13 09:19:56;;;;;;;;;3.00;2.00;;;;;11.29;100.00;100469.06;4987592;28;45098;-76
2022/03/13 09:22:22;;;;;;;;;1.00;1.00;;;;;11.46;100.00;100480.56;4986476;28;45294;-76
2022/03/13 09:24:49;;;;;;;;;3.00;2.00;;;;;11.52;100.00;100477.38;4986554;28;45036;-75
2022/03/13 09:27:15;;;;;;;;;2.00;2.00;;;;;11.66;100.00;100493.56;4986772;28;45509;-76
2022/03/13 09:29:40;;;;;;;;;2.00;1.67;;;;;11.61;100.00;100469.41;4983323;28;45138;-78
2022/03/13 09:32:06;;;;;;;;;2.00;2.00;;;;;11.24;100.00;100389.63;4978158;28;45251;-76
2022/03/13 09:34:34;;;;;;;;;2.00;2.00;;;;;11.25;100.00;100385.06;4988134;28;45111;-76
2022/03/13 09:37:02;;;;;;;;;2.00;2.00;;;;;11.92;100.00;100481.56;4988236;28;45497;-77
2022/03/13 09:39:29;;;;;;;;;2.00;2.00;;;;;11.98;100.00;100482.94;4987868;28;45141;-78
2022/03/13 09:41:55;;;;;;;;;2.67;1.67;;;;;12.03;100.00;100490.78;4986515;28;45006;-78
2022/03/13 09:44:21;;;;;;;;;1.33;1.33;;;;;11.84;100.00;100451.31;4988171;28;45067;-80
2022/03/13 09:46:47;;;;;;;;;2.00;2.00;;;;;12.10;100.00;100487.44;4987525;28;45657;-76
2022/03/13 09:49:16;;;;;;;;;3.67;3.00;;;;;12.04;100.00;100470.69;4968253;28;45259;-75
2022/03/13 09:51:42;;;;;;;;;2.00;2.00;;;;;11.35;100.00;100348.00;4987234;28;45207;-78
2022/03/13 09:54:08;;;;;;;;;1.67;1.00;;;;;12.17;100.00;100482.41;4987821;28;45162;-76
2022/03/13 09:56:34;;;;;;;;;2.00;2.00;;;;;12.22;100.00;100484.78;4984560;28;45406;-77
2022/03/13 09:58:59;;;;;;;;;1.00;1.00;;;;;12.09;100.00;100466.63;4989671;28;45436;-76
2022/03/13 10:01:25;;;;;;;;;2.00;2.00;;;;;12.27;100.00;100493.44;4985178;28;46247;-75
2022/03/13 10:03:50;;;;;;;;;3.67;2.00;;;;;12.28;100.00;100493.31;4970363;28;45622;-76
2022/03/13 10:06:16;;;;;;;;;1.67;1.67;;;;;11.72;100.00;100389.59;4971629;28;47114;-78
2022/03/13 10:08:42;;;;;;;;;1.00;1.00;;;;;12.30;100.00;100487.75;4989913;28;45467;-77
2022/03/13 10:11:07;;;;;;;;;2.33;2.33;;;;;11.83;100.00;100408.72;4986269;28;45271;-76
2022/03/13 10:13:37;;;;;;;;;1.00;1.00;;;;;12.09;100.00;100457.59;4986875;28;45487;-78
2022/03/13 10:16:04;;;;;;;;;3.00;1.00;;;;;11.35;100.00;100328.94;4988110;28;46015;-76
2022/03/13 10:18:30;;;;;;;;;2.00;1.00;;;;;11.66;100.00;100374.59;4987534;28;45178;-77
2022/03/13 10:20:56;;;;;;;;;1.00;1.00;;;;;11.07;100.00;100281.22;4988279;28;45101;-76
2022/03/13 10:23:22;;;;;;;;;2.00;2.00;;;;;10.94;100.00;100250.50;4987402;28;45848;-78
2022/03/13 10:25:50;;;;;;;;;4.33;2.67;;;;;12.36;100.00;100490.84;4989061;28;45739;-77
2022/03/13 10:28:30;;;;;;;;;2.67;1.00;;;;;12.23;100.00;100467.41;4989960;28;45230;-76
2022/03/13 10:30:58;;;;;;;;;2.33;2.33;;;;;12.38;100.00;100488.03;4986592;28;45296;-76
2022/03/13 10:33:29;;;;;;;;;2.00;2.00;;;;;12.00;100.00;100420.16;4990140;28;45217;-81
2022/03/13 10:36:08;;;;;;;;;1.67;1.67;;;;;12.21;100.00;100451.16;4988660;28;46082;-76
2022/03/13 10:38:35;;;;;;;;;1.00;1.00;;;;;12.35;100.00;100471.88;4988028;28;45425;-75
2022/03/13 10:41:01;;;;;;;;;1.00;1.00;;;;;12.27;100.00;100461.59;4989978;28;45087;-78
2022/03/13 10:43:29;;;;;;;;;3.00;1.33;;;;;11.82;100.00;100387.94;4988756;28;45639;-77
2022/03/13 10:45:56;;;;;;;;;2.00;1.33;;;;;11.06;100.00;100257.75;4989733;28;45663;-76
2022/03/13 10:48:30;;;;;;;;;1.00;1.00;;;;;11.76;100.00;100384.75;4993278;28;45323;-77
2022/03/13 10:50:58;;;;;;;;;1.00;1.00;;;;;12.34;100.00;100475.63;4982321;28;45292;-77
2022/03/13 10:53:24;;;;;;;;;2.33;2.33;;;;;11.54;100.00;100322.94;4989551;28;45236;-78
2022/03/13 10:56:07;;;;;;;;;3.33;2.00;;;;;11.95;100.00;100407.75;4987348;28;45701;-76
2022/03/13 10:58:35;;;;;;;;;2.00;1.00;;;;;10.58;100.00;100163.47;4988481;28;45448;-76
2022/03/13 11:01:11;;;;;;;;;2.67;2.67;;;;;12.19;100.00;100424.03;4982653;28;45374;-76
2022/03/13 11:03:47;;;;;;;;;2.33;2.33;;;;;11.02;100.00;100251.66;4971294;28;45260;-76
2022/03/13 11:06:12;;;;;;;;;3.33;2.00;;;;;11.52;100.00;100323.06;4990471;28;45456;-80
2022/03/13 11:08:38;;;;;;;;;3.67;3.67;;;;;12.03;100.00;100412.63;4989528;28;45150;-81
2022/03/13 11:11:04;;;;;;;;;3.67;3.67;;;;;11.82;100.00;100379.75;4983748;28;45446;-79
2022/03/13 11:13:32;;;;;;;;;2.00;2.00;;;;;12.08;100.00;100407.66;4987975;28;45046;-77
2022/03/13 11:15:58;;;;;;;;;3.00;3.00;;;;;11.40;100.00;100291.34;4987514;28;45135;-80